Cuchillo, New Mexico
Current Conditions -  °F | °C
As of 5:53 PM on Saturday 25 Oct 2014 (Local Time) from KTCS Reporting Station
Clear Clear  
Wind Chill: 80°   Ceiling: Unl
Heat Index: 80°   Visibility: 10mi
Dew Point: 41°   Wind: 8mph
Humidity: 25%   Direction: 180°S
Pressure: 30.14"   Gusts: NA
Location:  33.1866°N, 106.845°W
Report Text: KTCS 252353Z AUTO 18007KT 10SM CLR 27/05 A3014 RMK AO2 SLP141 T02670050 10278 20222 58014 TSNO
Loading
Personal Weather Stations






























Interactive Weather Map
Tropical Storm Tracking
New forecast layout! Learn more

10-Day Weather Forecast

Advertisements
Track Severe Weather on mobile